createdAt,value
2023-03-27T00:00:13.330Z,6.20
2023-03-27T00:03:02.021Z,7.30
2023-03-27T00:05:31.337Z,6.00
2023-03-27T00:08:01.679Z,6.30
2023-03-27T00:10:31.066Z,6.60
2023-03-27T00:12:59.580Z,6.90
2023-03-27T00:15:27.896Z,6.00
2023-03-27T00:17:58.791Z,6.50
2023-03-27T00:20:27.298Z,6.10
2023-03-27T00:22:56.459Z,7.70
2023-03-27T00:25:27.901Z,7.40
2023-03-27T00:27:58.560Z,7.80
2023-03-27T00:30:29.349Z,8.60
2023-03-27T00:32:58.817Z,9.00
2023-03-27T00:35:29.391Z,7.70
2023-03-27T00:37:58.945Z,8.10
2023-03-27T00:40:27.312Z,8.20
2023-03-27T00:42:57.830Z,8.00
2023-03-27T00:45:33.658Z,7.80
2023-03-27T00:48:08.251Z,7.20
2023-03-27T00:50:41.583Z,8.50
2023-03-27T00:53:18.985Z,7.90
2023-03-27T00:55:51.666Z,8.10
2023-03-27T00:58:26.279Z,8.70
2023-03-27T01:00:57.355Z,10.00
2023-03-27T01:03:31.616Z,9.70
2023-03-27T01:06:02.288Z,10.70
2023-03-27T01:08:34.493Z,10.90
2023-03-27T01:11:21.943Z,13.00
2023-03-27T01:14:37.476Z,11.80
2023-03-27T01:17:40.888Z,11.90
2023-03-27T01:20:42.394Z,12.00
2023-03-27T01:23:58.995Z,13.70
2023-03-27T01:26:49.075Z,12.40
2023-03-27T01:29:53.452Z,11.40
2023-03-27T01:32:42.169Z,12.20
2023-03-27T01:35:25.536Z,10.70
2023-03-27T01:38:08.991Z,12.50
2023-03-27T01:41:10.594Z,10.10
2023-03-27T01:43:57.848Z,10.10
2023-03-27T01:46:49.316Z,9.50
2023-03-27T01:49:22.938Z,8.30
2023-03-27T01:51:58.529Z,9.50
2023-03-27T01:54:34.746Z,9.20
2023-03-27T01:57:20.697Z,9.50
2023-03-27T02:00:17.597Z,8.50
2023-03-27T02:03:09.488Z,7.40
2023-03-27T02:05:51.414Z,8.50
2023-03-27T02:08:27.282Z,8.40
2023-03-27T02:10:58.984Z,9.10
2023-03-27T02:13:37.122Z,8.20
2023-03-27T02:16:08.623Z,8.70
2023-03-27T02:18:46.076Z,8.10
2023-03-27T02:21:15.916Z,8.10
2023-03-27T02:23:44.840Z,8.30
2023-03-27T02:26:13.556Z,7.40
2023-03-27T02:29:27.889Z,7.20
2023-03-27T02:32:22.169Z,6.50
2023-03-27T02:35:03.343Z,6.30
2023-03-27T02:37:41.642Z,6.10
2023-03-27T02:44:57.309Z,6.60
2023-03-27T02:48:14.748Z,5.60
2023-03-27T02:51:25.197Z,5.80
2023-03-27T02:54:01.158Z,6.30
2023-03-27T02:56:38.685Z,7.30
2023-03-27T02:59:13.089Z,7.40
2023-03-27T03:01:42.219Z,7.00
2023-03-27T03:04:25.243Z,8.80
2023-03-27T03:06:54.192Z,9.00
2023-03-27T03:09:24.828Z,9.10
2023-03-27T03:11:54.463Z,10.70
2023-03-27T03:14:31.744Z,11.20
2023-03-27T03:17:00.441Z,10.30
2023-03-27T03:19:28.812Z,11.70
2023-03-27T03:21:57.153Z,12.40
2023-03-27T03:24:25.485Z,11.20
2023-03-27T03:26:53.814Z,14.30
2023-03-27T03:29:22.128Z,13.30
2023-03-27T03:31:50.458Z,14.20
2023-03-27T03:34:19.102Z,14.40
2023-03-27T03:36:50.373Z,14.50
2023-03-27T03:39:19.037Z,16.70
2023-03-27T03:41:47.904Z,14.90
2023-03-27T03:44:16.346Z,16.10
2023-03-27T03:46:44.701Z,18.00
2023-03-27T03:49:13.125Z,19.50
2023-03-27T03:51:41.504Z,18.60
2023-03-27T03:54:10.008Z,17.70
2023-03-27T03:56:41.544Z,21.10
2023-03-27T03:59:12.015Z,18.40
2023-03-27T04:01:40.995Z,18.30
2023-03-27T04:04:09.344Z,17.20
2023-03-27T04:06:37.944Z,15.30
2023-03-27T04:09:07.071Z,15.90
2023-03-27T04:11:35.405Z,15.20
2023-03-27T04:14:03.695Z,15.00
2023-03-27T04:16:32.102Z,14.10
2023-03-27T04:19:01.155Z,12.60
2023-03-27T04:21:29.916Z,12.10
2023-03-27T04:24:02.675Z,12.00
2023-03-27T04:26:31.349Z,10.80
2023-03-27T04:28:59.680Z,9.40
2023-03-27T04:31:30.353Z,9.50
2023-03-27T04:34:00.048Z,9.30
2023-03-27T04:36:29.543Z,8.20
2023-03-27T04:38:59.768Z,7.20
2023-03-27T04:41:29.688Z,7.10
2023-03-27T04:43:58.158Z,7.00
2023-03-27T04:46:26.599Z,5.60
2023-03-27T04:48:56.460Z,4.50
2023-03-27T04:51:26.677Z,4.60
2023-03-27T04:53:56.458Z,4.30
2023-03-27T04:56:25.017Z,3.60
2023-03-27T04:58:53.363Z,3.80
2023-03-27T05:01:23.234Z,2.90
2023-03-27T05:03:53.571Z,3.30
2023-03-27T05:06:23.912Z,3.70
2023-03-27T05:08:52.296Z,4.30
2023-03-27T05:11:21.406Z,2.80
2023-03-27T05:13:50.145Z,2.70
2023-03-27T05:16:18.625Z,3.00
2023-03-27T05:18:47.489Z,2.50
2023-03-27T05:21:15.980Z,3.20
2023-03-27T05:23:44.414Z,4.70
2023-03-27T05:26:12.927Z,3.40
2023-03-27T05:28:41.304Z,4.40
2023-03-27T05:31:10.752Z,3.70
2023-03-27T05:33:39.958Z,4.70
2023-03-27T05:36:09.950Z,4.60
2023-03-27T05:38:39.522Z,4.40
2023-03-27T05:41:10.216Z,4.60
2023-03-27T05:43:38.746Z,4.20
2023-03-27T05:46:07.766Z,3.50
2023-03-27T05:48:36.713Z,4.50
2023-03-27T05:51:06.632Z,4.20
2023-03-27T05:53:39.280Z,5.50
2023-03-27T05:56:08.484Z,4.00
2023-03-27T05:58:36.942Z,4.60
2023-03-27T06:01:06.011Z,4.90
2023-03-27T06:03:38.673Z,4.60
2023-03-27T06:06:13.090Z,3.90
2023-03-27T06:08:41.540Z,4.00
2023-03-27T06:11:15.389Z,2.90
2023-03-27T06:13:44.268Z,3.40
2023-03-27T06:16:13.015Z,3.10
2023-03-27T06:18:41.855Z,3.30
2023-03-27T06:21:10.514Z,3.20
2023-03-27T06:23:39.323Z,4.80
2023-03-27T06:26:07.667Z,4.90
2023-03-27T06:28:36.904Z,6.40
2023-03-27T06:31:06.714Z,8.60
2023-03-27T06:33:35.222Z,8.90
2023-03-27T06:36:05.385Z,4.70
2023-03-27T06:38:33.847Z,3.80
2023-03-27T06:41:03.210Z,5.20
2023-03-27T06:43:31.960Z,4.90
2023-03-27T06:46:00.516Z,7.40
2023-03-27T06:48:29.593Z,9.20
2023-03-27T07:01:44.033Z,4.50
2023-03-27T07:04:13.192Z,4.80
2023-03-27T07:06:41.735Z,6.40
2023-03-27T07:09:10.052Z,5.70
2023-03-27T07:11:39.201Z,11.10
2023-03-27T07:14:09.513Z,12.10
2023-03-27T07:16:38.229Z,14.30
2023-03-27T07:19:06.779Z,16.80
2023-03-27T07:21:35.288Z,11.00
2023-03-27T07:24:04.307Z,8.30
2023-03-27T07:26:34.336Z,7.20
2023-03-27T07:29:03.951Z,6.20
2023-03-27T07:31:51.656Z,5.50
2023-03-27T07:34:21.833Z,6.50
2023-03-27T07:36:50.676Z,7.40
2023-03-27T07:39:22.787Z,6.20
2023-03-27T07:41:54.504Z,6.70
2023-03-27T07:44:43.583Z,5.60
2023-03-27T07:47:15.318Z,6.30
2023-03-27T07:49:43.744Z,9.60
2023-03-27T07:52:13.258Z,5.50
2023-03-27T07:54:43.194Z,7.40
2023-03-27T07:57:12.090Z,18.20
2023-03-27T07:59:42.533Z,6.30
2023-03-27T08:02:15.985Z,6.00
2023-03-27T08:04:45.358Z,5.40
2023-03-27T08:07:21.548Z,10.60
2023-03-27T08:09:53.959Z,10.00
2023-03-27T08:12:44.450Z,4.10
2023-03-27T08:15:12.927Z,3.70
2023-03-27T08:17:41.875Z,4.00
2023-03-27T08:20:15.177Z,4.20
2023-03-27T08:22:44.592Z,4.70
2023-03-27T08:25:13.568Z,3.90
2023-03-27T08:28:00.570Z,4.00
2023-03-27T08:30:31.692Z,4.60
2023-03-27T08:33:02.612Z,3.70
2023-03-27T08:35:31.211Z,3.40
2023-03-27T08:37:59.735Z,3.70
2023-03-27T08:40:34.792Z,3.40
2023-03-27T08:43:12.555Z,4.80
2023-03-27T08:46:10.660Z,4.10
2023-03-27T08:48:59.717Z,2.80
2023-03-27T08:51:40.452Z,3.90
2023-03-27T08:54:22.366Z,3.20
2023-03-27T08:56:51.655Z,2.70
2023-03-27T08:59:26.558Z,3.70
2023-03-27T09:02:39.257Z,2.00
2023-03-27T09:05:18.620Z,4.20
2023-03-27T09:08:32.645Z,3.00
2023-03-27T09:11:27.945Z,2.30
2023-03-27T09:13:56.615Z,2.40
2023-03-27T09:16:37.901Z,1.90
2023-03-27T09:19:21.638Z,2.90
2023-03-27T09:22:06.669Z,3.10
2023-03-27T09:24:42.018Z,2.80
2023-03-27T09:27:20.823Z,6.20
2023-03-27T09:30:15.048Z,4.50
2023-03-27T09:32:43.711Z,4.50
2023-03-27T09:35:18.097Z,4.40
2023-03-27T09:37:58.673Z,2.70
2023-03-27T09:40:45.740Z,2.50
2023-03-27T09:43:28.325Z,2.70
2023-03-27T09:45:59.210Z,3.20
2023-03-27T09:48:47.365Z,3.60
2023-03-27T09:51:42.943Z,3.20
2023-03-27T09:54:17.591Z,2.40
2023-03-27T09:57:03.409Z,7.50
2023-03-27T10:02:23.076Z,2.60
2023-03-27T10:05:24.836Z,2.60
2023-03-27T10:07:53.277Z,4.10
2023-03-27T10:10:21.796Z,3.30
2023-03-27T10:12:59.691Z,2.70
2023-03-27T10:15:38.989Z,2.90
2023-03-27T10:18:30.476Z,2.70
2023-03-27T10:21:14.163Z,2.80
2023-03-27T10:23:49.838Z,4.30
2023-03-27T10:26:26.541Z,2.50
2023-03-27T10:29:07.039Z,2.50
2023-03-27T10:31:39.918Z,3.00
2023-03-27T10:34:39.923Z,4.90
2023-03-27T10:37:34.208Z,3.40
2023-03-27T10:40:09.468Z,4.80
2023-03-27T10:42:38.068Z,22.10
2023-03-27T10:45:07.814Z,3.20
2023-03-27T10:47:36.633Z,3.00
2023-03-27T10:50:23.133Z,1.70
2023-03-27T10:53:20.609Z,4.80
2023-03-27T10:56:16.862Z,2.10
2023-03-27T10:59:38.374Z,4.40
2023-03-27T11:02:30.718Z,3.10
2023-03-27T11:05:08.278Z,2.40
2023-03-27T11:08:49.166Z,2.40
2023-03-27T11:11:33.512Z,2.20
2023-03-27T11:14:10.785Z,2.50
2023-03-27T11:16:45.966Z,3.40
2023-03-27T11:19:43.785Z,2.20
2023-03-27T11:22:26.492Z,2.40
2023-03-27T11:25:07.578Z,2.40
2023-03-27T11:27:49.912Z,2.20
2023-03-27T11:30:56.237Z,2.20
2023-03-27T11:33:54.488Z,1.90
2023-03-27T11:36:30.159Z,2.50
2023-03-27T11:39:32.355Z,1.50
2023-03-27T11:42:09.446Z,1.60
2023-03-27T11:44:37.825Z,1.50
2023-03-27T11:47:18.807Z,2.50
2023-03-27T11:50:34.104Z,1.50
2023-03-27T11:53:10.012Z,1.70
2023-03-27T11:56:26.806Z,1.80
2023-03-27T11:58:58.005Z,2.40
2023-03-27T12:01:40.784Z,1.80
2023-03-27T12:04:36.899Z,1.90
2023-03-27T12:07:35.876Z,2.00
2023-03-27T12:10:39.315Z,1.60
2023-03-27T12:13:40.662Z,1.70
2023-03-27T12:16:28.687Z,1.10
2023-03-27T12:19:27.437Z,1.70
2023-03-27T12:22:42.266Z,2.30
2023-03-27T12:26:22.384Z,2.60
2023-03-27T12:29:23.375Z,2.30
2023-03-27T12:32:08.060Z,4.60
2023-03-27T12:35:00.725Z,2.30
2023-03-27T12:37:47.685Z,5.80
2023-03-27T12:40:40.687Z,5.80
2023-03-27T12:43:21.408Z,2.60
2023-03-27T12:46:24.370Z,2.60
2023-03-27T12:49:08.237Z,1.20
2023-03-27T12:51:51.136Z,1.70
2023-03-27T12:54:19.473Z,2.10
2023-03-27T12:57:20.601Z,1.80
2023-03-27T12:59:49.002Z,1.60
2023-03-27T13:03:05.194Z,1.80
2023-03-27T13:05:48.702Z,1.40
2023-03-27T13:08:50.987Z,1.40
2023-03-27T13:12:16.189Z,1.60
2023-03-27T13:15:09.140Z,1.40
2023-03-27T13:17:56.262Z,1.40
2023-03-27T13:20:48.486Z,1.40
2023-03-27T13:23:59.620Z,1.60
2023-03-27T13:27:02.699Z,0.90
2023-03-27T13:29:34.148Z,1.40
2023-03-27T13:32:30.974Z,1.60
2023-03-27T13:35:19.476Z,2.00
2023-03-27T13:37:50.880Z,3.50
2023-03-27T13:40:30.991Z,1.40
2023-03-27T13:43:22.216Z,1.70
2023-03-27T13:46:01.431Z,1.50
2023-03-27T13:49:10.392Z,1.70
2023-03-27T13:52:05.397Z,1.00
2023-03-27T13:55:04.705Z,1.70
2023-03-27T13:58:17.977Z,1.40
2023-03-27T14:01:13.478Z,2.10
2023-03-27T14:04:39.362Z,2.40
2023-03-27T14:07:42.156Z,1.20
2023-03-27T14:10:28.993Z,1.50
2023-03-27T14:13:48.036Z,2.00
2023-03-27T14:16:40.822Z,2.00
2023-03-27T14:19:34.472Z,7.60
2023-03-27T14:22:14.472Z,24.00
2023-03-27T14:24:52.459Z,6.60
2023-03-27T14:36:49.859Z,1.40
2023-03-27T14:39:27.841Z,2.80
2023-03-27T14:42:01.480Z,4.10
2023-03-27T14:44:32.326Z,1.30
2023-03-27T14:47:10.032Z,8.80
2023-03-27T14:49:48.039Z,5.60
2023-03-27T14:52:30.824Z,3.90
2023-03-27T14:55:02.881Z,8.80
2023-03-27T14:57:32.160Z,4.20
2023-03-27T15:00:01.165Z,5.50
2023-03-27T15:02:35.023Z,2.00
2023-03-27T15:05:18.255Z,2.30
2023-03-27T15:07:49.226Z,2.60
2023-03-27T15:10:22.664Z,2.60
2023-03-27T15:12:51.927Z,1.90
2023-03-27T15:15:43.042Z,2.30
2023-03-27T15:18:49.878Z,4.20
2023-03-27T15:21:39.168Z,2.20
2023-03-27T15:24:16.864Z,14.60
2023-03-27T15:26:48.286Z,6.00
2023-03-27T15:29:39.367Z,2.60
2023-03-27T15:32:12.536Z,6.50
2023-03-27T15:34:49.029Z,12.90
2023-03-27T15:37:24.394Z,5.00
2023-03-27T15:40:36.936Z,5.80
2023-03-27T15:43:14.571Z,4.70
2023-03-27T15:46:12.433Z,4.80
2023-03-27T15:48:45.858Z,8.20
2023-03-27T15:51:20.178Z,6.90
2023-03-27T15:53:55.749Z,6.30
2023-03-27T15:56:42.836Z,3.90
2023-03-27T15:59:15.453Z,1.50
2023-03-27T16:02:03.635Z,2.20
2023-03-27T16:05:02.306Z,3.20
2023-03-27T16:07:48.406Z,6.50
2023-03-27T16:10:32.945Z,10.30
2023-03-27T16:13:04.126Z,21.00
2023-03-27T16:15:41.521Z,7.90
2023-03-27T16:18:28.038Z,10.10
2023-03-27T16:21:15.268Z,5.20
2023-03-27T16:23:44.340Z,5.70
2023-03-27T16:26:18.578Z,7.20
2023-03-27T16:28:47.446Z,8.80
2023-03-27T16:31:19.472Z,4.00
2023-03-27T16:33:48.069Z,7.70
2023-03-27T16:36:20.749Z,10.70
2023-03-27T16:38:49.681Z,10.60
2023-03-27T16:41:18.495Z,13.00
2023-03-27T16:43:46.804Z,6.60
2023-03-27T16:46:25.503Z,6.30
2023-03-27T16:49:00.031Z,4.70
2023-03-27T16:51:29.951Z,6.80
2023-03-27T16:53:58.578Z,8.10
2023-03-27T16:56:27.261Z,6.30
2023-03-27T16:58:57.296Z,5.00
2023-03-27T17:01:26.907Z,15.20
2023-03-27T17:03:55.756Z,10.70
2023-03-27T17:06:24.083Z,11.70
2023-03-27T17:08:55.727Z,11.70
2023-03-27T17:11:24.739Z,24.30
2023-03-27T17:13:53.893Z,26.00
2023-03-27T17:16:22.392Z,21.00
2023-03-27T17:18:52.121Z,20.80
2023-03-27T17:21:20.831Z,13.80
2023-03-27T17:23:49.520Z,10.20
2023-03-27T17:26:54.448Z,9.40
2023-03-27T17:29:22.983Z,8.40
2023-03-27T17:31:52.129Z,8.10
2023-03-27T17:34:20.676Z,12.50
2023-03-27T17:36:54.297Z,10.30
2023-03-27T17:39:27.691Z,7.20
2023-03-27T17:41:55.951Z,15.90
2023-03-27T17:44:24.344Z,9.20
2023-03-27T17:46:52.924Z,14.50
2023-03-27T17:49:21.524Z,11.30
2023-03-27T17:51:50.229Z,9.00
2023-03-27T17:54:19.019Z,7.40
2023-03-27T17:56:47.704Z,11.30
2023-03-27T17:59:16.143Z,12.80
2023-03-27T18:01:45.838Z,12.00
2023-03-27T18:04:14.238Z,13.30
2023-03-27T18:06:42.612Z,13.40
2023-03-27T18:09:11.065Z,16.70
2023-03-27T18:11:39.344Z,27.00
2023-03-27T18:14:07.807Z,28.60
2023-03-27T18:16:36.160Z,29.60
2023-03-27T18:19:04.551Z,30.00
2023-03-27T18:21:32.929Z,29.70
2023-03-27T18:24:01.346Z,18.60
2023-03-27T18:26:29.725Z,10.40
2023-03-27T18:28:58.101Z,7.10
2023-03-27T18:31:27.435Z,13.90
2023-03-27T18:33:56.945Z,11.30
2023-03-27T18:36:25.740Z,9.10
2023-03-27T18:38:54.385Z,8.90
2023-03-27T18:41:24.461Z,6.10
2023-03-27T18:43:52.910Z,6.10
2023-03-27T18:46:21.531Z,4.80
2023-03-27T18:48:50.168Z,8.90
2023-03-27T18:51:18.779Z,6.20
2023-03-27T18:53:50.409Z,8.30
2023-03-27T18:56:18.849Z,9.40
2023-03-27T18:58:47.326Z,7.60
2023-03-27T19:01:16.855Z,6.20
2023-03-27T19:03:45.259Z,4.90
2023-03-27T19:06:13.686Z,5.20
2023-03-27T19:08:43.769Z,4.60
2023-03-27T19:11:12.168Z,4.20
2023-03-27T19:13:40.820Z,5.70
2023-03-27T19:16:13.821Z,6.20
2023-03-27T19:18:43.870Z,12.00
2023-03-27T19:21:12.313Z,15.80
2023-03-27T19:23:40.815Z,26.80
2023-03-27T19:26:12.885Z,22.50
2023-03-27T19:28:43.231Z,20.10
2023-03-27T19:31:12.548Z,19.20
2023-03-27T19:33:43.988Z,19.30
2023-03-27T19:36:12.457Z,22.70
2023-03-27T19:38:41.137Z,26.80
2023-03-27T19:41:11.316Z,17.00
2023-03-27T19:43:39.768Z,19.20
2023-03-27T19:46:16.170Z,21.10
2023-03-27T19:48:47.553Z,25.30
2023-03-27T19:51:16.170Z,24.50
2023-03-27T19:53:44.506Z,18.80
2023-03-27T19:56:12.930Z,18.50
2023-03-27T19:58:41.242Z,18.40
2023-03-27T20:01:10.023Z,15.60
2023-03-27T20:03:40.238Z,10.70
2023-03-27T20:06:13.313Z,11.40
2023-03-27T20:08:43.153Z,9.90
2023-03-27T20:11:11.611Z,10.70
2023-03-27T20:13:52.928Z,14.40
2023-03-27T20:16:27.338Z,15.00
2023-03-27T20:19:04.608Z,13.90
2023-03-27T20:21:40.326Z,13.80
2023-03-27T20:24:11.798Z,10.20
2023-03-27T20:26:42.092Z,10.10
2023-03-27T20:29:17.317Z,9.60
2023-03-27T20:31:46.686Z,11.30
2023-03-27T20:34:19.136Z,10.90
2023-03-27T20:36:48.093Z,11.70
2023-03-27T20:39:16.600Z,9.90
2023-03-27T20:41:46.960Z,11.60
2023-03-27T20:44:15.959Z,11.80
2023-03-27T20:46:52.039Z,11.00
2023-03-27T20:51:59.267Z,9.20
2023-03-27T20:54:28.714Z,10.80
2023-03-27T20:56:57.110Z,9.10
2023-03-27T20:59:25.771Z,12.40
2023-03-27T21:01:54.388Z,9.60
2023-03-27T21:04:25.600Z,10.50
2023-03-27T21:06:55.093Z,9.90
2023-03-27T21:09:25.887Z,7.30
2023-03-27T21:11:55.897Z,7.50
2023-03-27T21:14:24.548Z,7.60
2023-03-27T21:16:53.249Z,6.80
2023-03-27T21:19:21.837Z,6.70
2023-03-27T21:21:50.428Z,5.50
2023-03-27T21:24:19.572Z,7.40
2023-03-27T21:26:48.007Z,7.50
2023-03-27T21:29:16.371Z,6.10
2023-03-27T21:31:44.726Z,5.10
2023-03-27T21:34:13.128Z,4.80
2023-03-27T21:36:41.669Z,5.30
2023-03-27T21:39:10.217Z,4.40
2023-03-27T21:41:38.783Z,5.40
2023-03-27T21:44:07.129Z,6.80
2023-03-27T21:46:35.777Z,8.50
2023-03-27T21:49:04.180Z,8.30
2023-03-27T21:51:32.521Z,5.70
2023-03-27T21:54:00.830Z,7.30
2023-03-27T21:56:29.207Z,7.00
2023-03-27T21:58:57.676Z,8.50
2023-03-27T22:01:26.282Z,7.30
2023-03-27T22:03:55.185Z,7.30
2023-03-27T22:06:23.568Z,7.40
2023-03-27T22:08:51.870Z,6.00
2023-03-27T22:11:20.615Z,5.90
2023-03-27T22:13:49.135Z,5.10
2023-03-27T22:16:18.164Z,4.60
2023-03-27T22:18:46.809Z,4.20
2023-03-27T22:21:19.267Z,4.70
2023-03-27T22:23:50.730Z,4.70
2023-03-27T22:26:22.680Z,4.90
2023-03-27T22:28:52.615Z,5.40
2023-03-27T22:31:22.897Z,4.40
2023-03-27T22:33:51.842Z,4.10
2023-03-27T22:36:20.644Z,5.20
2023-03-27T22:38:49.047Z,4.20
2023-03-27T22:41:17.989Z,4.60
2023-03-27T22:43:49.210Z,3.50
2023-03-27T22:46:22.408Z,3.80
2023-03-27T22:48:56.063Z,4.00
2023-03-27T22:51:27.326Z,3.80
2023-03-27T22:53:55.935Z,3.30
2023-03-27T22:56:24.581Z,3.40
2023-03-27T22:58:53.230Z,3.50
2023-03-27T23:01:21.623Z,3.50
2023-03-27T23:03:50.054Z,3.10
2023-03-27T23:06:22.292Z,3.60
2023-03-27T23:08:51.521Z,3.80
2023-03-27T23:11:20.466Z,2.50
2023-03-27T23:13:48.978Z,2.80
2023-03-27T23:16:17.370Z,3.20
2023-03-27T23:18:45.813Z,2.40
2023-03-27T23:21:17.694Z,2.70
2023-03-27T23:23:46.514Z,3.50
2023-03-27T23:26:15.592Z,2.90
2023-03-27T23:28:44.043Z,3.10
2023-03-27T23:31:21.612Z,3.30
2023-03-27T23:33:51.175Z,3.90
2023-03-27T23:36:23.861Z,2.70
2023-03-27T23:38:53.394Z,2.80
2023-03-27T23:41:22.084Z,2.70
2023-03-27T23:43:50.980Z,2.70
2023-03-27T23:46:19.441Z,2.80
2023-03-27T23:48:47.781Z,3.00
2023-03-27T23:51:17.200Z,2.80
2023-03-27T23:53:45.724Z,2.80
2023-03-27T23:56:14.189Z,2.70
2023-03-27T23:58:42.990Z,3.00
